Time,TemperatureF,DewpointF,PressureIn,WindDirection,WindDirectionDegrees,WindSpeedMPH,WindSpeedGustMPH,Humidity,HourlyPrecipIn,Conditions,Clouds,dailyrainin,SoftwareType,DateUTC
2013-09-16 00:00:00,62.5,61.3,30.07,NW,321,0.0,0.0,96,0.00,,---,0.00,VWS V14.01,2013-09-16 04:00:00,
2013-09-16 00:01:00,61.6,60.5,30.06,NW,321,0.0,0.0,96,0.00,,---,0.00,VWS V14.01,2013-09-16 04:01:00,
2013-09-16 00:06:00,61.5,60.3,30.06,NW,321,0.0,0.0,96,0.00,,---,0.00,VWS V14.01,2013-09-16 04:06:00,
2013-09-16 00:11:00,61.5,60.3,30.06,NW,321,0.0,0.0,96,0.00,,---,0.00,VWS V14.01,2013-09-16 04:11:00,
2013-09-16 00:16:00,61.5,60.3,30.06,NW,321,0.0,0.0,96,0.00,,---,0.00,VWS V14.01,2013-09-16 04:16:00,
2013-09-16 00:21:00,61.6,60.5,30.06,NW,321,0.0,0.0,96,0.00,,---,0.00,VWS V14.01,2013-09-16 04:21:00,
2013-09-16 00:26:00,61.6,60.5,30.06,NW,321,0.0,0.0,96,0.00,,---,0.00,VWS V14.01,2013-09-16 04:26:00,
2013-09-16 00:30:00,62.1,61.0,30.07,NW,321,0.0,0.0,96,0.00,,---,0.00,VWS V14.01,2013-09-16 04:30:00,
2013-09-16 00:31:00,61.7,60.5,30.06,NW,321,0.0,0.0,96,0.00,,---,0.00,VWS V14.01,2013-09-16 04:31:00,
2013-09-16 00:36:00,61.8,60.9,30.06,NW,321,0.0,0.0,97,0.00,,---,0.00,VWS V14.01,2013-09-16 04:36:00,
2013-09-16 00:41:00,62.0,61.1,30.06,NW,321,0.0,0.0,97,0.00,,---,0.00,VWS V14.01,2013-09-16 04:41:00,
2013-09-16 00:46:00,62.3,61.2,30.06,NW,321,0.0,0.0,96,0.00,,---,0.00,VWS V14.01,2013-09-16 04:46:00,
2013-09-16 00:51:00,62.4,61.5,30.06,NW,321,0.0,0.0,97,0.00,,---,0.00,VWS V14.01,2013-09-16 04:51:00,
2013-09-16 00:56:00,62.5,61.3,30.06,NW,321,0.0,0.0,96,0.00,,---,0.00,VWS V14.01,2013-09-16 04:56:00,
2013-09-16 01:00:00,61.5,60.3,30.06,NW,321,0.0,0.0,96,0.00,,---,0.00,VWS V14.01,2013-09-16 05:00:00,
2013-09-16 01:01:00,62.7,61.5,30.05,NW,321,0.0,0.0,96,0.00,,---,0.00,VWS V14.01,2013-09-16 05:01:00,
2013-09-16 01:06:00,62.6,61.5,30.05,NW,321,0.0,0.0,96,0.00,,---,0.00,VWS V14.01,2013-09-16 05:06:00,
2013-09-16 01:11:00,62.6,61.5,30.05,NW,321,0.0,0.0,96,0.00,,---,0.00,VWS V14.01,2013-09-16 05:11:00,
2013-09-16 01:16:00,62.5,61.3,30.05,NW,321,0.0,0.0,96,0.00,,---,0.00,VWS V14.01,2013-09-16 05:16:00,
2013-09-16 01:21:00,62.5,61.3,30.05,NW,321,0.0,0.0,96,0.00,,---,0.00,VWS V14.01,2013-09-16 05:21:00,
2013-09-16 01:26:00,62.6,61.7,30.05,NW,321,0.0,0.0,97,0.00,,---,0.00,VWS V14.01,2013-09-16 05:26:00,
2013-09-16 01:30:00,61.7,60.5,30.06,NW,321,0.0,0.0,96,0.00,,---,0.00,VWS V14.01,2013-09-16 05:30:00,
2013-09-16 01:31:00,62.6,61.7,30.05,NW,321,0.0,0.0,97,0.00,,---,0.00,VWS V14.01,2013-09-16 05:31:00,
2013-09-16 01:36:00,62.5,61.6,30.06,NW,321,0.0,0.0,97,0.00,,---,0.00,VWS V14.01,2013-09-16 05:36:00,
2013-09-16 01:41:00,62.3,61.2,30.06,NW,321,0.0,0.0,96,0.00,,---,0.00,VWS V14.01,2013-09-16 05:41:00,
2013-09-16 01:46:00,62.4,61.5,30.06,NW,321,0.0,0.0,97,0.00,,---,0.00,VWS V14.01,2013-09-16 05:46:00,
2013-09-16 01:51:00,62.5,61.6,30.06,NW,321,0.0,0.0,97,0.00,,---,0.00,VWS V14.01,2013-09-16 05:51:00,
2013-09-16 01:56:00,62.7,61.8,30.05,NW,321,0.0,0.0,97,0.00,,---,0.00,VWS V14.01,2013-09-16 05:56:00,
2013-09-16 02:00:00,62.7,61.5,30.05,NW,321,0.0,0.0,96,0.00,,---,0.00,VWS V14.01,2013-09-16 06:00:00,
2013-09-16 02:01:00,62.7,61.8,30.05,NW,321,0.0,0.0,97,0.00,,---,0.00,VWS V14.01,2013-09-16 06:01:00,
2013-09-16 02:06:00,62.3,61.2,30.05,NW,321,0.0,0.0,96,0.00,,---,0.00,VWS V14.01,2013-09-16 06:06:00,
2013-09-16 02:11:00,62.3,61.4,30.05,NW,321,0.0,0.0,97,0.00,,---,0.00,VWS V14.01,2013-09-16 06:11:00,
2013-09-16 02:16:00,62.3,61.4,30.05,NW,321,0.0,0.0,97,0.00,,---,0.00,VWS V14.01,2013-09-16 06:16:00,
2013-09-16 02:21:00,62.3,61.4,30.05,NW,321,0.0,0.0,97,0.00,,---,0.00,VWS V14.01,2013-09-16 06:21:00,
2013-09-16 02:26:00,62.2,61.3,30.05,NW,321,0.0,0.0,97,0.00,,---,0.00,VWS V14.01,2013-09-16 06:26:00,
2013-09-16 02:30:00,62.6,61.7,30.05,NW,321,0.0,0.0,97,0.00,,---,0.00,VWS V14.01,2013-09-16 06:30:00,
2013-09-16 02:31:00,62.2,61.3,30.05,NW,321,0.0,0.0,97,0.00,,---,0.00,VWS V14.01,2013-09-16 06:31:00,
2013-09-16 02:36:00,62.2,61.3,30.05,NW,321,0.0,0.0,97,0.00,,---,0.00,VWS V14.01,2013-09-16 06:36:00,
2013-09-16 02:41:00,62.2,61.3,30.04,NW,321,0.0,0.0,97,0.00,,---,0.00,VWS V14.01,2013-09-16 06:41:00,
2013-09-16 02:46:00,62.2,61.3,30.04,NW,321,0.0,0.0,97,0.00,,---,0.00,VWS V14.01,2013-09-16 06:46:00,
2013-09-16 02:51:00,62.2,61.3,30.05,NW,321,0.0,0.0,97,0.00,,---,0.00,VWS V14.01,2013-09-16 06:51:00,
2013-09-16 02:56:00,62.2,61.3,30.04,NW,321,0.0,0.0,97,0.00,,---,0.00,VWS V14.01,2013-09-16 06:56:00,
2013-09-16 03:00:00,62.7,61.8,30.05,NW,321,0.0,0.0,97,0.00,,---,0.00,VWS V14.01,2013-09-16 07:00:00,
2013-09-16 03:01:00,62.4,61.5,30.04,NW,321,0.0,0.0,97,0.00,,---,0.00,VWS V14.01,2013-09-16 07:01:00,
2013-09-16 03:06:00,62.4,61.5,30.04,NW,321,0.0,0.0,97,0.00,,---,0.00,VWS V14.01,2013-09-16 07:06:00,
2013-09-16 03:11:00,62.3,61.4,30.04,NW,321,0.0,0.0,97,0.00,,---,0.00,VWS V14.01,2013-09-16 07:11:00,
2013-09-16 03:16:00,62.3,61.4,30.04,NW,321,0.0,0.0,97,0.00,,---,0.00,VWS V14.01,2013-09-16 07:16:00,
2013-09-16 03:21:00,62.3,61.4,30.04,NW,321,0.0,0.0,97,0.00,,---,0.00,VWS V14.01,2013-09-16 07:21:00,
2013-09-16 03:26:00,62.5,61.6,30.04,NW,321,0.0,0.0,97,0.00,,---,0.00,VWS V14.01,2013-09-16 07:26:00,
2013-09-16 03:30:00,62.1,61.2,30.05,NW,321,0.0,0.0,97,0.00,,---,0.00,VWS V14.01,2013-09-16 07:30:00,
2013-09-16 03:31:00,62.8,61.9,30.04,NW,321,0.0,0.0,97,0.00,,---,0.00,VWS V14.01,2013-09-16 07:31:00,
2013-09-16 03:36:00,62.9,62.0,30.04,NW,321,0.0,0.0,97,0.00,,---,0.00,VWS V14.01,2013-09-16 07:36:00,
2013-09-16 03:41:00,63.0,62.1,30.04,NW,321,0.0,0.0,97,0.00,,---,0.00,VWS V14.01,2013-09-16 07:41:00,
2013-09-16 03:46:00,63.2,62.3,30.04,NW,321,0.0,0.0,97,0.00,,---,0.00,VWS V14.01,2013-09-16 07:46:00,
2013-09-16 03:51:00,63.4,62.5,30.04,NW,321,0.0,0.0,97,0.00,,---,0.00,VWS V14.01,2013-09-16 07:51:00,
2013-09-16 03:56:00,63.6,62.7,30.04,NW,321,0.0,0.0,97,0.00,,---,0.00,VWS V14.01,2013-09-16 07:56:00,
2013-09-16 04:00:00,62.3,61.4,30.04,NW,321,0.0,0.0,97,0.00,,---,0.00,VWS V14.01,2013-09-16 08:00:00,
2013-09-16 04:01:00,63.9,63.0,30.04,NW,321,0.0,0.0,97,0.00,,---,0.00,VWS V14.01,2013-09-16 08:01:00,
2013-09-16 04:06:00,63.9,63.0,30.04,NW,321,0.0,0.0,97,0.00,,---,0.00,VWS V14.01,2013-09-16 08:06:00,
2013-09-16 04:11:00,64.1,63.2,30.04,NW,321,0.0,0.0,97,0.00,,---,0.00,VWS V14.01,2013-09-16 08:11:00,
2013-09-16 04:16:00,64.2,63.3,30.04,NW,321,0.0,0.0,97,0.00,,---,0.00,VWS V14.01,2013-09-16 08:16:00,
2013-09-16 04:21:00,64.4,63.5,30.04,NW,321,0.0,0.0,97,0.00,,---,0.00,VWS V14.01,2013-09-16 08:21:00,
2013-09-16 04:26:00,64.5,63.6,30.04,NW,321,0.0,0.0,97,0.00,,---,0.00,VWS V14.01,2013-09-16 08:26:00,
2013-09-16 04:30:00,62.7,61.8,30.04,NW,321,0.0,0.0,97,0.00,,---,0.00,VWS V14.01,2013-09-16 08:30:00,
2013-09-16 04:31:00,64.5,63.6,30.04,NW,321,0.0,0.0,97,0.00,,---,0.00,VWS V14.01,2013-09-16 08:31:00,
2013-09-16 04:36:00,64.7,63.8,30.03,NW,321,0.0,0.0,97,0.00,,---,0.00,VWS V14.01,2013-09-16 08:36:00,
2013-09-16 04:41:00,64.8,63.9,30.04,NW,321,0.0,0.0,97,0.00,,---,0.00,VWS V14.01,2013-09-16 08:41:00,
2013-09-16 04:46:00,65.2,64.3,30.04,NW,321,1.0,1.0,97,0.00,,---,0.00,VWS V14.01,2013-09-16 08:46:00,
2013-09-16 04:51:00,65.5,64.6,30.04,NW,321,0.0,2.0,97,0.00,,---,0.00,VWS V14.01,2013-09-16 08:51:00,
2013-09-16 04:56:00,65.5,64.6,30.03,NW,321,0.0,2.0,97,0.00,,---,0.00,VWS V14.01,2013-09-16 08:56:00,
2013-09-16 05:00:00,63.8,62.9,30.04,NW,321,0.0,0.0,97,0.00,,---,0.00,VWS V14.01,2013-09-16 09:00:00,
2013-09-16 05:01:00,65.4,64.5,30.04,NW,321,0.0,0.0,97,0.00,,---,0.00,VWS V14.01,2013-09-16 09:01:00,
2013-09-16 05:06:00,65.3,64.4,30.04,NW,321,0.0,0.0,97,0.00,,---,0.00,VWS V14.01,2013-09-16 09:06:00,
2013-09-16 05:11:00,65.6,64.7,30.04,NW,321,0.0,0.0,97,0.00,,---,0.00,VWS V14.01,2013-09-16 09:11:00,
2013-09-16 05:16:00,65.6,64.7,30.03,NW,321,0.0,0.0,97,0.00,,---,0.00,VWS V14.01,2013-09-16 09:16:00,
2013-09-16 05:21:00,65.9,65.3,30.03,NW,321,0.0,0.0,98,0.00,,---,0.00,VWS V14.01,2013-09-16 09:21:00,
2013-09-16 05:26:00,66.3,65.7,30.03,NW,321,0.0,0.0,98,0.00,,---,0.00,VWS V14.01,2013-09-16 09:26:00,
2013-09-16 05:30:00,64.5,63.6,30.04,NW,321,0.0,0.0,97,0.00,,---,0.00,VWS V14.01,2013-09-16 09:30:00,
2013-09-16 05:31:00,66.5,65.9,30.03,NW,321,0.0,0.0,98,0.00,,---,0.00,VWS V14.01,2013-09-16 09:31:00,
2013-09-16 05:36:00,66.3,65.4,30.03,NW,321,0.0,0.0,97,0.00,,---,0.00,VWS V14.01,2013-09-16 09:36:00,
2013-09-16 05:41:00,66.5,65.9,30.03,NW,321,0.0,0.0,98,0.00,,---,0.00,VWS V14.01,2013-09-16 09:41:00,
2013-09-16 05:46:00,66.4,65.5,30.03,NW,321,0.0,0.0,97,0.00,,---,0.00,VWS V14.01,2013-09-16 09:46:00,
2013-09-16 05:51:00,66.3,65.4,30.03,NW,321,0.0,0.0,97,0.00,,---,0.00,VWS V14.01,2013-09-16 09:51:00,
2013-09-16 05:56:00,66.4,65.5,30.03,NW,321,0.0,2.0,97,0.05,,---,0.05,VWS V14.01,2013-09-16 09:56:00,
2013-09-16 06:00:00,65.4,64.5,30.04,NW,321,0.0,2.0,97,0.00,,---,0.00,VWS V14.01,2013-09-16 10:00:00,
2013-09-16 06:01:00,66.7,66.1,30.03,NW,321,0.0,0.0,98,0.05,,---,0.05,VWS V14.01,2013-09-16 10:01:00,
2013-09-16 06:06:00,67.3,66.7,30.03,NW,321,0.0,1.0,98,0.06,,---,0.06,VWS V14.01,2013-09-16 10:06:00,
2013-09-16 06:11:00,67.2,66.6,30.03,NW,321,0.0,1.0,98,0.06,,---,0.06,VWS V14.01,2013-09-16 10:11:00,
2013-09-16 06:16:00,67.2,66.6,30.03,NW,321,0.0,1.0,98,0.06,,---,0.06,VWS V14.01,2013-09-16 10:16:00,
2013-09-16 06:21:00,67.3,66.7,30.03,NW,321,0.0,1.0,98,0.06,,---,0.06,VWS V14.01,2013-09-16 10:21:00,
2013-09-16 06:26:00,67.2,66.6,30.03,NW,321,0.0,1.0,98,0.06,,---,0.06,VWS V14.01,2013-09-16 10:26:00,
2013-09-16 06:30:00,66.5,65.9,30.03,NW,321,0.0,0.0,98,0.00,,---,0.00,VWS V14.01,2013-09-16 10:30:00,
2013-09-16 06:31:00,67.0,66.4,30.03,NW,321,0.0,0.0,98,0.06,,---,0.06,VWS V14.01,2013-09-16 10:31:00,
2013-09-16 06:36:00,67.2,66.6,30.03,NW,321,0.0,0.0,98,0.06,,---,0.06,VWS V14.01,2013-09-16 10:36:00,
2013-09-16 06:41:00,67.2,66.6,30.03,NW,321,0.0,0.0,98,0.06,,---,0.06,VWS V14.01,2013-09-16 10:41:00,
2013-09-16 06:46:00,67.0,66.4,30.03,NW,321,0.0,0.0,98,0.06,,---,0.06,VWS V14.01,2013-09-16 10:46:00,
2013-09-16 06:51:00,66.9,66.3,30.03,NW,321,0.0,0.0,98,0.06,,---,0.06,VWS V14.01,2013-09-16 10:51:00,
2013-09-16 06:56:00,67.0,66.4,30.03,NW,321,0.0,0.0,98,0.06,,---,0.06,VWS V14.01,2013-09-16 10:56:00,
2013-09-16 07:00:00,66.7,66.1,30.03,NW,321,0.0,2.0,98,0.05,,---,0.05,VWS V14.01,2013-09-16 11:00:00,
2013-09-16 07:01:00,67.0,66.4,30.03,NW,321,0.0,0.0,98,0.01,,---,0.06,VWS V14.01,2013-09-16 11:01:00,
2013-09-16 07:06:00,67.2,66.6,30.03,NW,321,0.0,0.0,98,0.01,,---,0.06,VWS V14.01,2013-09-16 11:06:00,
2013-09-16 07:11:00,67.1,66.5,30.04,NW,321,0.0,0.0,98,0.01,,---,0.06,VWS V14.01,2013-09-16 11:11:00,
2013-09-16 07:16:00,67.4,67.1,30.04,NW,321,0.0,0.0,99,0.01,,---,0.06,VWS V14.01,2013-09-16 11:16:00,
2013-09-16 07:21:00,67.5,67.2,30.04,NW,321,0.0,0.0,99,0.01,,---,0.06,VWS V14.01,2013-09-16 11:21:00,
2013-09-16 07:26:00,67.2,66.6,30.04,NW,321,0.0,0.0,98,0.01,,---,0.06,VWS V14.01,2013-09-16 11:26:00,
2013-09-16 07:30:00,67.0,66.4,30.03,NW,321,0.0,1.0,98,0.06,,---,0.06,VWS V14.01,2013-09-16 11:30:00,
2013-09-16 07:31:00,67.2,66.6,30.04,NW,321,0.0,0.0,98,0.00,,---,0.06,VWS V14.01,2013-09-16 11:31:00,
2013-09-16 07:36:00,67.2,66.6,30.04,NW,321,0.0,0.0,98,0.00,,---,0.06,VWS V14.01,2013-09-16 11:36:00,
2013-09-16 07:41:00,67.5,67.2,30.04,NW,321,0.0,0.0,99,0.00,,---,0.06,VWS V14.01,2013-09-16 11:41:00,
2013-09-16 07:46:00,67.6,67.3,30.04,NW,321,0.0,0.0,99,0.00,,---,0.06,VWS V14.01,2013-09-16 11:46:00,
2013-09-16 07:51:00,67.9,67.6,30.04,NW,321,0.0,0.0,99,0.00,,---,0.06,VWS V14.01,2013-09-16 11:51:00,
2013-09-16 07:56:00,68.1,67.8,30.04,NW,321,0.0,0.0,99,0.00,,---,0.06,VWS V14.01,2013-09-16 11:56:00,
2013-09-16 08:00:00,67.0,66.4,30.03,NW,321,0.0,0.0,98,0.06,,---,0.06,VWS V14.01,2013-09-16 12:00:00,
2013-09-16 08:01:00,68.2,67.9,30.04,NW,321,0.0,0.0,99,0.00,,---,0.06,VWS V14.01,2013-09-16 12:01:00,
2013-09-16 08:06:00,68.1,67.8,30.04,NW,321,0.0,0.0,99,0.00,,---,0.06,VWS V14.01,2013-09-16 12:06:00,
2013-09-16 08:10:00,68.1,67.8,30.04,NW,321,0.0,0.0,99,0.00,,---,0.06,VWS V14.01,2013-09-16 12:10:00,
2013-09-16 08:15:00,68.2,67.9,30.04,NW,321,0.0,0.0,99,0.00,,---,0.06,VWS V14.01,2013-09-16 12:15:00,
2013-09-16 08:20:00,68.2,67.9,30.04,NW,321,0.0,0.0,99,0.00,,---,0.06,VWS V14.01,2013-09-16 12:20:00,
2013-09-16 08:25:00,68.6,68.3,30.04,NW,321,0.0,0.0,99,0.00,,---,0.06,VWS V14.01,2013-09-16 12:25:00,
2013-09-16 08:30:00,68.8,68.5,30.04,NW,321,0.0,0.0,99,0.00,,---,0.06,VWS V14.01,2013-09-16 12:30:00,
2013-09-16 08:35:00,69.2,68.9,30.04,NW,321,0.0,0.0,99,0.00,,---,0.06,VWS V14.01,2013-09-16 12:35:00,
2013-09-16 08:40:00,69.4,69.1,30.04,NW,321,0.0,0.0,99,0.00,,---,0.06,VWS V14.01,2013-09-16 12:40:00,
2013-09-16 08:45:00,69.7,69.4,30.05,NW,321,0.0,0.0,99,0.00,,---,0.06,VWS V14.01,2013-09-16 12:45:00,
2013-09-16 08:50:00,69.7,69.4,30.04,NW,321,0.0,0.0,99,0.00,,---,0.06,VWS V14.01,2013-09-16 12:50:00,
2013-09-16 08:55:00,69.7,69.4,30.04,NW,321,0.0,0.0,99,0.00,,---,0.06,VWS V14.01,2013-09-16 12:55:00,
2013-09-16 09:00:00,70.1,69.8,30.04,NW,321,0.0,0.0,99,0.00,,---,0.06,VWS V14.01,2013-09-16 13:00:00,
2013-09-16 09:05:00,70.4,70.1,30.04,NW,321,0.0,0.0,99,0.00,,---,0.06,VWS V14.01,2013-09-16 13:05:00,
2013-09-16 09:10:00,70.8,70.5,30.04,NW,321,0.0,1.0,99,0.00,,---,0.06,VWS V14.01,2013-09-16 13:10:00,
2013-09-16 09:15:00,71.4,71.1,30.04,NW,321,0.0,1.0,99,0.00,,---,0.06,VWS V14.01,2013-09-16 13:15:00,
2013-09-16 09:20:00,71.5,71.2,30.04,West,274,2.0,3.0,99,0.00,,---,0.06,VWS V14.01,2013-09-16 13:20:00,
2013-09-16 09:25:00,71.8,71.5,30.05,WSW,255,0.0,4.0,99,0.00,,---,0.06,VWS V14.01,2013-09-16 13:25:00,
2013-09-16 09:30:00,72.0,71.7,30.05,WSW,255,0.0,0.0,99,0.00,,---,0.06,VWS V14.01,2013-09-16 13:30:00,
2013-09-16 09:35:00,72.2,71.9,30.04,WSW,255,0.0,1.0,99,0.00,,---,0.06,VWS V14.01,2013-09-16 13:35:00,
2013-09-16 09:40:00,72.3,71.7,30.05,WSW,255,0.0,1.0,98,0.00,,---,0.06,VWS V14.01,2013-09-16 13:40:00,
2013-09-16 09:45:00,72.4,71.8,30.05,WSW,255,0.0,3.0,98,0.00,,---,0.06,VWS V14.01,2013-09-16 13:45:00,
2013-09-16 09:51:00,72.5,71.6,30.04,WSW,255,0.0,3.0,97,0.00,,---,0.06,VWS V14.01,2013-09-16 13:51:00,
2013-09-16 09:56:00,72.9,72.0,30.04,WSW,255,2.0,3.0,97,0.00,,---,0.06,VWS V14.01,2013-09-16 13:56:00,
2013-09-16 10:00:00,73.1,72.2,30.05,WSW,255,0.0,2.0,97,0.00,,---,0.06,VWS V14.01,2013-09-16 14:00:00,
2013-09-16 10:05:00,73.5,72.3,30.04,WSW,255,0.0,2.0,96,0.00,,---,0.06,VWS V14.01,2013-09-16 14:05:00,
2013-09-16 10:10:00,73.4,72.2,30.04,WSW,255,0.0,2.0,96,0.00,,---,0.06,VWS V14.01,2013-09-16 14:10:00,
2013-09-16 10:15:00,73.5,72.3,30.04,WSW,255,0.0,2.0,96,0.00,,---,0.06,VWS V14.01,2013-09-16 14:15:00,
2013-09-16 10:20:00,73.8,72.3,30.04,WSW,242,0.0,3.0,95,0.00,,---,0.06,VWS V14.01,2013-09-16 14:20:00,
2013-09-16 10:25:00,74.0,72.2,30.05,WSW,242,0.0,4.0,94,0.00,,---,0.06,VWS V14.01,2013-09-16 14:25:00,
2013-09-16 10:30:00,73.9,72.1,30.04,WSW,242,1.0,1.0,94,0.00,,---,0.06,VWS V14.01,2013-09-16 14:30:00,
2013-09-16 10:35:00,73.7,72.2,30.05,WSW,242,0.0,1.0,95,0.00,,---,0.06,VWS V14.01,2013-09-16 14:35:00,
2013-09-16 10:40:00,73.7,72.2,30.05,WSW,242,0.0,1.0,95,0.00,,---,0.06,VWS V14.01,2013-09-16 14:40:00,
2013-09-16 10:45:00,73.8,72.0,30.05,WSW,242,0.0,1.0,94,0.00,,---,0.06,VWS V14.01,2013-09-16 14:45:00,
2013-09-16 10:50:00,74.0,72.2,30.04,WSW,242,0.0,1.0,94,0.00,,---,0.06,VWS V14.01,2013-09-16 14:50:00,
2013-09-16 10:55:00,74.1,72.3,30.04,WSW,242,0.0,3.0,94,0.00,,---,0.06,VWS V14.01,2013-09-16 14:55:00,
2013-09-16 11:00:00,75.1,72.6,30.04,WSW,242,0.0,1.0,92,0.00,,---,0.06,VWS V14.01,2013-09-16 15:00:00,
2013-09-16 11:05:00,75.5,73.0,30.04,WSW,242,0.0,1.0,92,0.00,,---,0.06,VWS V14.01,2013-09-16 15:05:00,
2013-09-16 11:10:00,75.8,72.7,30.04,WSW,242,0.0,1.0,90,0.00,,---,0.06,VWS V14.01,2013-09-16 15:10:00,
2013-09-16 11:15:00,76.4,72.9,30.04,WSW,242,0.0,2.0,89,0.00,,---,0.06,VWS V14.01,2013-09-16 15:15:00,
2013-09-16 11:20:00,77.3,71.0,30.03,WSW,247,1.0,5.0,81,0.00,,---,0.06,VWS V14.01,2013-09-16 15:20:00,
2013-09-16 11:25:00,77.8,71.9,30.03,WSW,247,0.0,5.0,82,0.00,,---,0.06,VWS V14.01,2013-09-16 15:25:00,
2013-09-16 11:30:00,78.0,71.3,30.03,WSW,258,1.0,2.0,80,0.00,,---,0.06,VWS V14.01,2013-09-16 15:30:00,
2013-09-16 11:35:00,78.1,71.8,30.03,WSW,243,5.0,5.0,81,0.00,,---,0.06,VWS V14.01,2013-09-16 15:35:00,
2013-09-16 11:40:00,78.8,69.4,30.03,SW,226,0.0,6.0,73,0.00,,---,0.06,VWS V14.01,2013-09-16 15:40:00,
2013-09-16 11:45:00,79.2,68.6,30.03,SSW,208,2.0,6.0,70,0.00,,---,0.06,VWS V14.01,2013-09-16 15:45:00,
2013-09-16 11:50:00,79.4,68.3,30.03,SW,236,4.0,8.0,69,0.00,,---,0.06,VWS V14.01,2013-09-16 15:50:00,
2013-09-16 11:55:00,79.6,68.5,30.03,WSW,250,3.0,8.0,69,0.00,,---,0.06,VWS V14.01,2013-09-16 15:55:00,
2013-09-16 12:00:00,79.9,66.7,30.03,SSE,161,4.0,4.0,64,0.00,,---,0.06,VWS V14.01,2013-09-16 16:00:00,
2013-09-16 12:05:00,80.2,67.4,30.03,West,263,4.0,5.0,65,0.00,,---,0.06,VWS V14.01,2013-09-16 16:05:00,
2013-09-16 12:10:00,80.4,68.9,30.03,West,259,0.0,6.0,68,0.00,,---,0.06,VWS V14.01,2013-09-16 16:10:00,
2013-09-16 12:15:00,80.7,67.4,30.02,WSW,238,2.0,6.0,64,0.00,,---,0.06,VWS V14.01,2013-09-16 16:15:00,
2013-09-16 12:20:00,80.9,66.2,30.02,West,268,3.0,10.0,61,0.00,,---,0.06,VWS V14.01,2013-09-16 16:20:00,
2013-09-16 12:25:00,81.1,67.3,30.02,ESE,122,1.0,10.0,63,0.00,,---,0.06,VWS V14.01,2013-09-16 16:25:00,
2013-09-16 12:30:00,81.4,68.5,30.02,West,259,2.0,2.0,65,0.00,,---,0.06,VWS V14.01,2013-09-16 16:30:00,
2013-09-16 12:35:00,81.4,67.1,30.02,SW,225,2.0,9.0,62,0.00,,---,0.06,VWS V14.01,2013-09-16 16:35:00,
2013-09-16 12:40:00,81.5,66.8,30.01,WSW,248,2.0,9.0,61,0.00,,---,0.06,VWS V14.01,2013-09-16 16:40:00,
2013-09-16 12:45:00,80.2,66.9,30.02,WSW,251,0.0,9.0,64,0.00,,---,0.06,VWS V14.01,2013-09-16 16:45:00,
2013-09-16 12:50:00,80.9,66.2,30.01,SSE,165,5.0,9.0,61,0.00,,---,0.06,VWS V14.01,2013-09-16 16:50:00,
2013-09-16 12:55:00,81.7,66.0,30.01,West,267,3.0,9.0,59,0.00,,---,0.06,VWS V14.01,2013-09-16 16:55:00,
2013-09-16 13:00:00,82.1,65.9,30.01,WSW,243,0.0,1.0,58,0.00,,---,0.06,VWS V14.01,2013-09-16 17:00:00,
2013-09-16 13:05:00,82.0,64.8,30.01,SSW,198,2.0,12.0,56,0.00,,---,0.06,VWS V14.01,2013-09-16 17:05:00,
2013-09-16 13:10:00,81.9,66.2,30.01,WSW,241,2.0,12.0,59,0.00,,---,0.06,VWS V14.01,2013-09-16 17:10:00,
2013-09-16 13:15:00,82.0,65.3,30.01,NNW,346,1.0,12.0,57,0.00,,---,0.06,VWS V14.01,2013-09-16 17:15:00,
2013-09-16 13:20:00,82.3,67.0,30.01,West,266,1.0,12.0,60,0.00,,---,0.06,VWS V14.01,2013-09-16 17:20:00,
2013-09-16 13:25:00,82.5,65.8,30.01,South,170,1.0,12.0,57,0.00,,---,0.06,VWS V14.01,2013-09-16 17:25:00,
2013-09-16 13:30:00,82.4,66.2,30.01,WSW,247,0.0,1.0,58,0.00,,---,0.06,VWS V14.01,2013-09-16 17:30:00,
2013-09-16 13:35:00,83.5,66.2,30.00,West,262,0.0,4.0,56,0.00,,---,0.06,VWS V14.01,2013-09-16 17:35:00,
2013-09-16 13:40:00,83.3,65.5,30.01,SW,232,0.0,4.0,55,0.00,,---,0.06,VWS V14.01,2013-09-16 17:40:00,
2013-09-16 13:45:00,83.4,66.1,30.00,SW,230,0.0,4.0,56,0.00,,---,0.06,VWS V14.01,2013-09-16 17:45:00,
2013-09-16 13:50:00,83.0,67.2,30.00,West,273,2.0,4.0,59,0.00,,---,0.06,VWS V14.01,2013-09-16 17:50:00,
2013-09-16 13:55:00,82.8,66.5,30.00,ESE,102,0.0,6.0,58,0.00,,---,0.06,VWS V14.01,2013-09-16 17:55:00,
2013-09-16 14:00:00,82.9,65.6,30.00,West,261,0.0,0.0,56,0.00,,---,0.06,VWS V14.01,2013-09-16 18:00:00,
2013-09-16 14:05:00,83.1,65.3,30.00,South,176,2.0,10.0,55,0.00,,---,0.06,VWS V14.01,2013-09-16 18:05:00,
2013-09-16 14:10:00,83.3,66.5,30.00,WSW,241,0.0,10.0,57,0.00,,---,0.06,VWS V14.01,2013-09-16 18:10:00,
2013-09-16 14:15:00,83.8,65.9,30.00,NW,324,2.0,10.0,55,0.00,,---,0.06,VWS V14.01,2013-09-16 18:15:00,
2013-09-16 14:20:00,82.7,65.4,29.99,West,273,0.0,10.0,56,0.00,,---,0.06,VWS V14.01,2013-09-16 18:20:00,
2013-09-16 14:25:00,82.7,65.9,29.99,WNW,290,1.0,10.0,57,0.00,,---,0.06,VWS V14.01,2013-09-16 18:25:00,
2013-09-16 14:30:00,83.8,63.2,29.99,WSW,238,4.0,4.0,50,0.00,,---,0.06,VWS V14.01,2013-09-16 18:30:00,
2013-09-16 14:35:00,83.6,65.2,29.98,WSW,238,6.0,6.0,54,0.00,,---,0.06,VWS V14.01,2013-09-16 18:35:00,
2013-09-16 14:40:00,84.1,63.5,29.98,SW,233,4.0,11.0,50,0.00,,---,0.06,VWS V14.01,2013-09-16 18:40:00,
2013-09-16 14:45:00,84.0,63.4,29.98,WSW,256,4.0,11.0,50,0.00,,---,0.06,VWS V14.01,2013-09-16 18:45:00,
2013-09-16 14:50:00,84.3,64.8,29.98,West,259,0.0,11.0,52,0.00,,---,0.06,VWS V14.01,2013-09-16 18:50:00,
2013-09-16 14:55:00,83.7,63.1,29.98,WSW,240,0.0,11.0,50,0.00,,---,0.06,VWS V14.01,2013-09-16 18:55:00,
2013-09-16 15:00:00,82.6,63.8,29.98,SW,235,2.0,2.0,53,0.00,,---,0.06,VWS V14.01,2013-09-16 19:00:00,
2013-09-16 15:05:00,83.6,66.8,29.98,SSE,166,1.0,3.0,57,0.00,,---,0.06,VWS V14.01,2013-09-16 19:05:00,
2013-09-16 15:10:00,84.1,62.9,29.98,SW,233,0.0,9.0,49,0.00,,---,0.06,VWS V14.01,2013-09-16 19:10:00,
2013-09-16 15:15:00,84.7,64.6,29.97,WSW,255,0.0,9.0,51,0.00,,---,0.06,VWS V14.01,2013-09-16 19:15:00,
2013-09-16 15:20:00,84.8,64.1,29.97,South,171,1.0,9.0,50,0.00,,---,0.06,VWS V14.01,2013-09-16 19:20:00,
2013-09-16 15:25:00,84.8,65.2,29.97,SW,215,1.0,9.0,52,0.00,,---,0.06,VWS V14.01,2013-09-16 19:25:00,
2013-09-16 15:30:00,83.4,65.0,29.97,ESE,115,0.0,1.0,54,0.00,,---,0.06,VWS V14.01,2013-09-16 19:30:00,
2013-09-16 15:35:00,82.0,63.7,29.97,SSE,157,0.0,5.0,54,0.00,,---,0.06,VWS V14.01,2013-09-16 19:35:00,
2013-09-16 15:40:00,82.0,63.7,29.96,South,190,2.0,5.0,54,0.00,,---,0.06,VWS V14.01,2013-09-16 19:40:00,
2013-09-16 15:45:00,82.9,63.5,29.96,East,80,0.0,5.0,52,0.00,,---,0.06,VWS V14.01,2013-09-16 19:45:00,
2013-09-16 15:50:00,83.4,64.0,29.96,NNW,333,2.0,5.0,52,0.00,,---,0.06,VWS V14.01,2013-09-16 19:50:00,
2013-09-16 15:55:00,83.6,63.6,29.96,South,187,0.0,5.0,51,0.00,,---,0.06,VWS V14.01,2013-09-16 19:55:00,
2013-09-16 16:00:00,84.1,64.0,29.96,WSW,238,1.0,2.0,51,0.00,,---,0.06,VWS V14.01,2013-09-16 20:00:00,
2013-09-16 16:05:00,84.2,63.6,29.96,West,267,2.0,3.0,50,0.00,,---,0.06,VWS V14.01,2013-09-16 20:05:00,
2013-09-16 16:10:00,83.9,64.4,29.95,SSW,203,0.0,3.0,52,0.00,,---,0.06,VWS V14.01,2013-09-16 20:10:00,
2013-09-16 16:15:00,82.8,63.9,29.95,SE,128,0.0,3.0,53,0.00,,---,0.06,VWS V14.01,2013-09-16 20:15:00,
2013-09-16 16:20:00,82.1,64.3,29.95,South,177,0.0,4.0,55,0.00,,---,0.06,VWS V14.01,2013-09-16 20:20:00,
2013-09-16 16:25:00,82.6,64.3,29.95,WSW,237,0.0,4.0,54,0.00,,---,0.06,VWS V14.01,2013-09-16 20:25:00,
2013-09-16 16:30:00,83.3,65.5,29.96,SE,130,4.0,4.0,55,0.00,,---,0.06,VWS V14.01,2013-09-16 20:30:00,
2013-09-16 16:35:00,83.2,64.8,29.96,SW,221,0.0,4.0,54,0.00,,---,0.06,VWS V14.01,2013-09-16 20:35:00,
2013-09-16 16:40:00,82.8,64.5,29.96,SW,221,0.0,4.0,54,0.00,,---,0.06,VWS V14.01,2013-09-16 20:40:00,
2013-09-16 16:45:00,81.8,64.6,29.96,SW,221,0.0,4.0,56,0.00,,---,0.06,VWS V14.01,2013-09-16 20:45:00,
2013-09-16 16:50:00,81.0,64.8,29.96,SW,221,0.0,4.0,58,0.00,,---,0.06,VWS V14.01,2013-09-16 20:50:00,
2013-09-16 16:55:00,80.6,64.5,29.96,SW,221,0.0,4.0,58,0.00,,---,0.06,VWS V14.01,2013-09-16 20:55:00,
2013-09-16 17:00:00,81.1,66.4,29.96,SW,221,0.0,0.0,61,0.00,,---,0.06,VWS V14.01,2013-09-16 21:00:00,
2013-09-16 17:05:00,81.5,65.8,29.96,SW,221,0.0,1.0,59,0.00,,---,0.06,VWS V14.01,2013-09-16 21:05:00,
2013-09-16 17:10:00,82.3,65.1,29.96,SW,219,1.0,1.0,56,0.00,,---,0.06,VWS V14.01,2013-09-16 21:10:00,
2013-09-16 17:15:00,82.6,65.3,29.96,SW,219,1.0,2.0,56,0.00,,---,0.06,VWS V14.01,2013-09-16 21:15:00,
2013-09-16 17:20:00,82.7,64.4,29.97,South,169,1.0,3.0,54,0.00,,---,0.06,VWS V14.01,2013-09-16 21:20:00,
2013-09-16 17:25:00,82.4,65.7,29.97,South,169,1.0,3.0,57,0.00,,---,0.06,VWS V14.01,2013-09-16 21:25:00,
2013-09-16 17:30:00,82.1,64.3,29.97,SSW,199,0.0,0.0,55,0.00,,---,0.06,VWS V14.01,2013-09-16 21:30:00,
2013-09-16 17:35:00,82.1,64.9,29.97,SSW,199,0.0,0.0,56,0.00,,---,0.06,VWS V14.01,2013-09-16 21:35:00,
2013-09-16 17:40:00,81.4,66.2,29.97,South,173,1.0,3.0,60,0.00,,---,0.06,VWS V14.01,2013-09-16 21:40:00,
2013-09-16 17:45:00,80.7,66.5,29.98,SE,130,1.0,3.0,62,0.00,,---,0.06,VWS V14.01,2013-09-16 21:45:00,
2013-09-16 17:50:00,80.1,66.8,29.98,SE,138,0.0,3.0,64,0.00,,---,0.06,VWS V14.01,2013-09-16 21:50:00,
2013-09-16 17:55:00,79.7,66.5,29.98,East,94,2.0,7.0,64,0.00,,---,0.06,VWS V14.01,2013-09-16 21:55:00,
2013-09-16 18:00:00,79.4,66.2,29.98,ESE,118,0.0,1.0,64,0.00,,---,0.06,VWS V14.01,2013-09-16 22:00:00,
2013-09-16 18:05:00,79.2,66.4,29.98,SE,128,0.0,5.0,65,0.00,,---,0.06,VWS V14.01,2013-09-16 22:05:00,
2013-09-16 18:10:00,78.9,66.2,29.98,East,98,3.0,5.0,65,0.00,,---,0.06,VWS V14.01,2013-09-16 22:10:00,
2013-09-16 18:15:00,78.8,66.5,29.99,East,93,0.0,5.0,66,0.00,,---,0.06,VWS V14.01,2013-09-16 22:15:00,
2013-09-16 18:20:00,78.5,65.8,29.99,East,96,0.0,5.0,65,0.00,,---,0.06,VWS V14.01,2013-09-16 22:20:00,
2013-09-16 18:25:00,78.2,65.9,29.99,East,96,1.0,5.0,66,0.00,,---,0.06,VWS V14.01,2013-09-16 22:25:00,
2013-09-16 18:30:00,77.8,65.5,29.99,East,96,0.0,0.0,66,0.00,,---,0.06,VWS V14.01,2013-09-16 22:30:00,
2013-09-16 18:35:00,77.7,65.4,29.99,East,97,1.0,4.0,66,0.00,,---,0.06,VWS V14.01,2013-09-16 22:35:00,
2013-09-16 18:40:00,77.4,65.6,29.99,East,97,0.0,4.0,67,0.00,,---,0.06,VWS V14.01,2013-09-16 22:40:00,
2013-09-16 18:45:00,77.1,65.7,29.99,East,97,1.0,4.0,68,0.00,,---,0.06,VWS V14.01,2013-09-16 22:45:00,
2013-09-16 18:50:00,76.7,65.8,29.99,ESE,111,3.0,4.0,69,0.00,,---,0.06,VWS V14.01,2013-09-16 22:50:00,
2013-09-16 18:55:00,76.4,65.9,29.99,ESE,111,0.0,4.0,70,0.00,,---,0.06,VWS V14.01,2013-09-16 22:55:00,
2013-09-16 19:00:00,76.0,65.5,30.00,ESE,111,0.0,0.0,70,0.00,,---,0.06,VWS V14.01,2013-09-16 23:00:00,
2013-09-16 19:05:00,75.9,65.4,30.00,ESE,111,0.0,2.0,70,0.00,,---,0.06,VWS V14.01,2013-09-16 23:05:00,
2013-09-16 19:10:00,75.9,65.0,30.00,ESE,111,1.0,2.0,69,0.00,,---,0.06,VWS V14.01,2013-09-16 23:10:00,
2013-09-16 19:15:00,75.7,64.8,30.00,ESE,111,0.0,2.0,69,0.00,,---,0.06,VWS V14.01,2013-09-16 23:15:00,
2013-09-16 19:20:00,75.5,65.0,30.00,ESE,111,0.0,3.0,70,0.00,,---,0.06,VWS V14.01,2013-09-16 23:20:00,
2013-09-16 19:25:00,75.3,64.4,30.00,ESE,111,0.0,3.0,69,0.00,,---,0.06,VWS V14.01,2013-09-16 23:25:00,
2013-09-16 19:30:00,75.1,64.2,30.01,ESE,111,0.0,0.0,69,0.00,,---,0.06,VWS V14.01,2013-09-16 23:30:00,
2013-09-16 19:35:00,74.9,64.5,30.01,ESE,111,0.0,1.0,70,0.00,,---,0.06,VWS V14.01,2013-09-16 23:35:00,
2013-09-16 19:40:00,74.8,64.0,30.01,ESE,107,1.0,3.0,69,0.00,,---,0.06,VWS V14.01,2013-09-16 23:40:00,
2013-09-16 19:45:00,74.8,64.0,30.02,ESE,107,0.0,3.0,69,0.00,,---,0.06,VWS V14.01,2013-09-16 23:45:00,
2013-09-16 19:50:00,74.6,64.2,30.02,ESE,112,1.0,3.0,70,0.00,,---,0.06,VWS V14.01,2013-09-16 23:50:00,
2013-09-16 19:55:00,74.5,63.7,30.02,ESE,109,0.0,3.0,69,0.00,,---,0.06,VWS V14.01,2013-09-16 23:55:00,
2013-09-16 20:00:00,74.3,64.3,30.02,ESE,109,0.0,0.0,71,0.00,,---,0.06,VWS V14.01,2013-09-17 00:00:00,
2013-09-16 20:05:00,74.2,63.8,30.02,ESE,103,0.0,3.0,70,0.00,,---,0.06,VWS V14.01,2013-09-17 00:05:00,
2013-09-16 20:10:00,74.1,64.1,30.02,ESE,103,0.0,3.0,71,0.00,,---,0.06,VWS V14.01,2013-09-17 00:10:00,
2013-09-16 20:15:00,74.0,64.0,30.03,ESE,103,0.0,3.0,71,0.00,,---,0.06,VWS V14.01,2013-09-17 00:15:00,
2013-09-16 20:20:00,73.8,64.2,30.03,ESE,103,1.0,3.0,72,0.00,,---,0.06,VWS V14.01,2013-09-17 00:20:00,
2013-09-16 20:25:00,73.6,64.0,30.04,ESE,103,0.0,3.0,72,0.00,,---,0.06,VWS V14.01,2013-09-17 00:25:00,
2013-09-16 20:30:00,73.5,64.3,30.04,ESE,103,0.0,3.0,73,0.00,,---,0.06,VWS V14.01,2013-09-17 00:30:00,
2013-09-16 20:35:00,73.4,64.2,30.04,ESE,103,0.0,0.0,73,0.00,,---,0.06,VWS V14.01,2013-09-17 00:35:00,
2013-09-16 20:40:00,73.3,64.5,30.04,ESE,103,0.0,1.0,74,0.00,,---,0.06,VWS V14.01,2013-09-17 00:40:00,
2013-09-16 20:45:00,73.2,64.4,30.04,ESE,103,0.0,1.0,74,0.00,,---,0.06,VWS V14.01,2013-09-17 00:45:00,
2013-09-16 20:50:00,73.1,64.7,30.04,ESE,103,0.0,1.0,75,0.00,,---,0.06,VWS V14.01,2013-09-17 00:50:00,
2013-09-16 20:55:00,72.9,63.8,30.04,ESE,103,0.0,1.0,73,0.00,,---,0.06,VWS V14.01,2013-09-17 00:55:00,
2013-09-16 21:00:00,72.8,64.0,30.04,ESE,103,0.0,0.0,74,0.00,,---,0.06,VWS V14.01,2013-09-17 01:00:00,
2013-09-16 21:05:00,72.8,64.0,30.05,ESE,103,3.0,3.0,74,0.00,,---,0.06,VWS V14.01,2013-09-17 01:05:00,
2013-09-16 21:10:00,72.5,64.1,30.05,East,101,0.0,3.0,75,0.00,,---,0.06,VWS V14.01,2013-09-17 01:10:00,
2013-09-16 21:15:00,72.7,63.9,30.05,East,101,0.0,3.0,74,0.00,,---,0.06,VWS V14.01,2013-09-17 01:15:00,
2013-09-16 21:20:00,72.6,64.6,30.05,East,101,0.0,3.0,76,0.00,,---,0.06,VWS V14.01,2013-09-17 01:20:00,
2013-09-16 21:25:00,72.5,64.5,30.06,East,101,0.0,3.0,76,0.00,,---,0.06,VWS V14.01,2013-09-17 01:25:00,
2013-09-16 21:30:00,72.1,64.1,30.06,ESE,102,0.0,0.0,76,0.00,,---,0.06,VWS V14.01,2013-09-17 01:30:00,
2013-09-16 21:35:00,71.8,65.3,30.06,ESE,102,0.0,0.0,80,0.00,,---,0.06,VWS V14.01,2013-09-17 01:35:00,
2013-09-16 21:40:00,71.8,64.6,30.06,ESE,102,0.0,1.0,78,0.00,,---,0.06,VWS V14.01,2013-09-17 01:40:00,
2013-09-16 21:45:00,72.1,64.1,30.06,ESE,102,1.0,2.0,76,0.00,,---,0.06,VWS V14.01,2013-09-17 01:45:00,
2013-09-16 21:50:00,72.2,64.2,30.07,ESE,102,0.0,2.0,76,0.00,,---,0.06,VWS V14.01,2013-09-17 01:50:00,
2013-09-16 21:55:00,72.2,64.2,30.07,ESE,102,0.0,2.0,76,0.00,,---,0.06,VWS V14.01,2013-09-17 01:55:00,
2013-09-16 22:00:00,72.3,64.3,30.07,ESE,102,0.0,0.0,76,0.00,,---,0.06,VWS V14.01,2013-09-17 02:00:00,
2013-09-16 22:05:00,72.2,65.3,30.07,ESE,102,0.0,1.0,79,0.00,,---,0.06,VWS V14.01,2013-09-17 02:05:00,
2013-09-16 22:10:00,72.0,64.4,30.07,ESE,102,0.0,1.0,77,0.00,,---,0.06,VWS V14.01,2013-09-17 02:10:00,
2013-09-16 22:15:00,72.2,64.2,30.07,ESE,102,1.0,1.0,76,0.00,,---,0.06,VWS V14.01,2013-09-17 02:15:00,
2013-09-16 22:20:00,72.3,64.3,30.08,ESE,105,0.0,3.0,76,0.00,,---,0.06,VWS V14.01,2013-09-17 02:20:00,
2013-09-16 22:25:00,72.4,64.0,30.08,ESE,105,1.0,3.0,75,0.00,,---,0.06,VWS V14.01,2013-09-17 02:25:00,
2013-09-16 22:30:00,72.3,64.3,30.08,ESE,105,1.0,1.0,76,0.00,,---,0.06,VWS V14.01,2013-09-17 02:30:00,
2013-09-16 22:35:00,72.2,64.2,30.07,NE,46,0.0,3.0,76,0.00,,---,0.06,VWS V14.01,2013-09-17 02:35:00,
2013-09-16 22:40:00,72.1,64.1,30.08,ENE,57,1.0,3.0,76,0.00,,---,0.06,VWS V14.01,2013-09-17 02:40:00,
2013-09-16 22:45:00,72.1,64.5,30.08,ESE,105,1.0,4.0,77,0.00,,---,0.06,VWS V14.01,2013-09-17 02:45:00,
2013-09-16 22:50:00,72.0,64.4,30.09,ENE,59,3.0,11.0,77,0.00,,---,0.06,VWS V14.01,2013-09-17 02:50:00,
2013-09-16 22:55:00,71.9,64.7,30.09,ENE,73,3.0,11.0,78,0.00,,---,0.06,VWS V14.01,2013-09-17 02:55:00,
2013-09-16 23:00:00,71.8,64.9,30.09,East,101,3.0,3.0,79,0.00,,---,0.06,VWS V14.01,2013-09-17 03:00:00,
2013-09-16 23:05:00,71.6,64.0,30.09,East,88,2.0,5.0,77,0.00,,---,0.06,VWS V14.01,2013-09-17 03:05:00,
2013-09-16 23:10:00,71.5,63.5,30.09,East,84,3.0,6.0,76,0.00,,---,0.06,VWS V14.01,2013-09-17 03:10:00,
2013-09-16 23:15:00,71.3,63.0,30.09,East,81,3.0,9.0,75,0.00,,---,0.06,VWS V14.01,2013-09-17 03:15:00,
2013-09-16 23:20:00,71.1,62.8,30.09,ENE,75,1.0,9.0,75,0.00,,---,0.06,VWS V14.01,2013-09-17 03:20:00,
2013-09-16 23:25:00,70.9,63.0,30.09,East,88,1.0,9.0,76,0.00,,---,0.06,VWS V14.01,2013-09-17 03:25:00,
2013-09-16 23:30:00,70.7,62.8,30.09,East,89,1.0,1.0,76,0.00,,---,0.06,VWS V14.01,2013-09-17 03:30:00,
2013-09-16 23:35:00,70.5,61.8,30.10,ENE,65,6.0,9.0,74,0.00,,---,0.06,VWS V14.01,2013-09-17 03:35:00,
2013-09-16 23:40:00,70.3,61.6,30.09,NNE,26,3.0,11.0,74,0.00,,---,0.06,VWS V14.01,2013-09-17 03:40:00,
2013-09-16 23:45:00,70.1,61.4,30.10,East,80,3.0,11.0,74,0.00,,---,0.06,VWS V14.01,2013-09-17 03:45:00,
2013-09-16 23:50:00,69.9,61.2,30.10,ESE,103,6.0,11.0,74,0.00,,---,0.06,VWS V14.01,2013-09-17 03:50:00,
2013-09-16 23:55:00,69.7,61.4,30.10,ESE,117,6.0,11.0,75,0.00,,---,0.06,VWS V14.01,2013-09-17 03:55:00,